Time;durP1;ratioP1;P1;durP2;ratioP2;P2;SDS_P1;SDS_P2;PMS_P1;PMS_P2;Temp;Humidity;BMP_temperature;BMP_pressure;BME280_temperature;BME280_humidity;BME280_pressure;Samples;Min_cycle;Max_cycle;Signal;HPM_P1;HPM_P2
2022/07/31 00:01:26;;;;;;;10.93;8.40;;;17.50;99.90;;;;;;5055650;28;20524;-63
2022/07/31 00:03:53;;;;;;;9.43;8.73;;;17.50;99.90;;;;;;5060330;28;21015;-62
2022/07/31 00:06:22;;;;;;;8.40;7.53;;;17.50;99.90;;;;;;5052400;28;20445;-64
2022/07/31 00:08:50;;;;;;;11.30;9.00;;;17.50;99.90;;;;;;5052983;28;20880;-65
2022/07/31 00:11:17;;;;;;;8.57;7.80;;;17.50;99.90;;;;;;5053013;28;20467;-62
2022/07/31 00:13:44;;;;;;;8.40;7.70;;;17.50;99.90;;;;;;5052424;28;21007;-63
2022/07/31 00:16:12;;;;;;;9.30;8.40;;;17.50;99.90;;;;;;5052608;28;20505;-61
2022/07/31 00:18:39;;;;;;;10.93;8.57;;;17.50;99.90;;;;;;5052557;28;20889;-62
2022/07/31 00:21:06;;;;;;;13.20;9.10;;;17.50;99.90;;;;;;5052203;28;20464;-62
2022/07/31 00:23:35;;;;;;;10.03;8.97;;;17.50;99.90;;;;;;5052226;28;20482;-62
2022/07/31 00:26:02;;;;;;;10.00;9.00;;;17.50;99.90;;;;;;5055004;28;20547;-62
2022/07/31 00:28:29;;;;;;;10.03;9.03;;;17.50;99.90;;;;;;5056466;28;20535;-61
2022/07/31 00:30:56;;;;;;;10.20;9.20;;;17.50;99.90;;;;;;5056081;28;20483;-61
2022/07/31 00:33:23;;;;;;;9.13;8.43;;;17.50;99.90;;;;;;5056414;28;20530;-63
2022/07/31 00:35:51;;;;;;;10.10;9.30;;;17.50;99.90;;;;;;5056707;28;20562;-62
2022/07/31 00:38:18;;;;;;;9.90;9.00;;;17.50;99.90;;;;;;5056031;28;20444;-62
2022/07/31 00:40:51;;;;;;;10.23;9.27;;;17.50;99.90;;;;;;5056523;28;20558;-62
2022/07/31 00:43:18;;;;;;;11.27;10.27;;;17.50;99.90;;;;;;5055950;28;20547;-62
2022/07/31 00:45:45;;;;;;;11.27;10.07;;;17.50;99.90;;;;;;5056176;28;20523;-62
2022/07/31 00:48:13;;;;;;;11.53;10.40;;;17.50;99.90;;;;;;5056355;28;20890;-62
2022/07/31 00:50:40;;;;;;;11.10;10.20;;;17.50;99.90;;;;;;5055794;28;20563;-62
2022/07/31 00:53:07;;;;;;;11.37;10.00;;;17.50;99.90;;;;;;5055651;28;20448;-63
2022/07/31 00:55:34;;;;;;;12.40;11.20;;;17.50;99.90;;;;;;5056375;28;20502;-62
2022/07/31 00:58:03;;;;;;;11.77;10.67;;;17.50;99.90;;;;;;5055971;28;20531;-67
2022/07/31 01:00:30;;;;;;;12.67;11.43;;;17.50;99.90;;;;;;5055978;28;20527;-63
2022/07/31 01:02:57;;;;;;;12.10;11.00;;;17.50;99.90;;;;;;5056016;28;20452;-64
2022/07/31 01:05:25;;;;;;;13.63;12.33;;;17.50;99.90;;;;;;5041266;28;20679;-62
2022/07/31 01:07:52;;;;;;;13.90;12.67;;;17.50;99.90;;;;;;5055892;28;20534;-62
2022/07/31 01:10:40;;;;;;;12.43;11.30;;;17.50;99.90;;;;;;5056094;28;20901;-63
2022/07/31 01:13:17;;;;;;;14.43;12.80;;;17.50;99.90;;;;;;5055748;28;20962;-63
2022/07/31 01:15:45;;;;;;;15.83;14.23;;;17.50;99.90;;;;;;5055340;28;21075;-63
2022/07/31 01:18:14;;;;;;;14.77;13.47;;;17.60;99.90;;;;;;5056136;28;20454;-62
2022/07/31 01:20:43;;;;;;;18.13;13.23;;;17.60;99.90;;;;;;5056059;28;20551;-63
2022/07/31 01:23:22;;;;;;;15.07;13.77;;;17.50;99.90;;;;;;5055831;28;20539;-62
2022/07/31 01:26:00;;;;;;;16.60;14.87;;;17.60;99.90;;;;;;5055329;28;20455;-63
2022/07/31 01:28:52;;;;;;;15.57;14.00;;;17.50;99.90;;;;;;5055721;28;20939;-62
2022/07/31 01:31:25;;;;;;;17.23;15.60;;;17.50;99.90;;;;;;5055479;28;20809;-62
2022/07/31 01:33:56;;;;;;;17.03;14.90;;;17.50;99.90;;;;;;5055349;28;20887;-62
2022/07/31 01:36:27;;;;;;;17.00;15.27;;;17.50;99.90;;;;;;5054912;28;20598;-62
2022/07/31 01:38:57;;;;;;;19.13;17.30;;;17.50;99.90;;;;;;5055263;28;20819;-62
2022/07/31 01:41:30;;;;;;;17.40;15.50;;;17.50;99.90;;;;;;5054873;28;20551;-62
2022/07/31 01:44:00;;;;;;;19.23;14.87;;;17.50;99.90;;;;;;5058607;28;20524;-63
2022/07/31 01:46:28;;;;;;;18.23;16.70;;;17.50;99.90;;;;;;5058893;28;20464;-63
2022/07/31 01:48:57;;;;;;;17.50;15.90;;;17.50;99.90;;;;;;5055449;28;20527;-62
2022/07/31 01:51:26;;;;;;;18.37;16.57;;;17.40;99.90;;;;;;5055058;28;20559;-63
2022/07/31 01:53:55;;;;;;;19.50;17.43;;;17.40;99.90;;;;;;5054574;28;20527;-63
2022/07/31 01:56:24;;;;;;;19.43;17.30;;;17.40;99.90;;;;;;5055071;28;20472;-62
2022/07/31 01:58:52;;;;;;;17.90;16.17;;;17.40;99.90;;;;;;5055250;28;20458;-62
2022/07/31 02:01:22;;;;;;;20.33;18.43;;;17.30;99.90;;;;;;5054701;28;21047;-62
2022/07/31 02:03:52;;;;;;;19.20;17.30;;;17.30;99.90;;;;;;5054920;28;20494;-63
2022/07/31 02:06:22;;;;;;;18.50;16.60;;;17.30;99.90;;;;;;5054952;28;20441;-62
2022/07/31 02:08:52;;;;;;;19.90;17.83;;;17.30;99.90;;;;;;5054764;28;20479;-62
2022/07/31 02:11:20;;;;;;;20.03;17.93;;;17.20;99.90;;;;;;5054524;28;20467;-63
2022/07/31 02:13:49;;;;;;;19.53;17.50;;;17.20;99.90;;;;;;5054539;28;20964;-63
2022/07/31 02:16:18;;;;;;;21.27;17.57;;;17.10;99.90;;;;;;5055059;28;20850;-63
2022/07/31 02:18:48;;;;;;;19.90;17.90;;;17.10;99.90;;;;;;5035655;28;20539;-62
2022/07/31 02:21:16;;;;;;;19.90;18.00;;;17.10;99.90;;;;;;5040323;28;20563;-61
2022/07/31 02:23:43;;;;;;;18.37;16.67;;;17.10;99.90;;;;;;5054570;28;20880;-63
2022/07/31 02:26:11;;;;;;;20.77;18.57;;;17.00;99.90;;;;;;5053949;28;20531;-62
2022/07/31 02:28:42;;;;;;;20.87;18.83;;;17.00;99.90;;;;;;5054891;28;20523;-62
2022/07/31 02:31:13;;;;;;;21.67;19.67;;;17.00;99.90;;;;;;5053973;28;20547;-63
2022/07/31 02:33:43;;;;;;;22.27;20.17;;;17.00;99.90;;;;;;5039600;28;20520;-62
2022/07/31 02:36:13;;;;;;;21.37;19.20;;;17.00;99.90;;;;;;5054573;28;20592;-61
2022/07/31 02:38:43;;;;;;;25.03;22.47;;;17.00;99.90;;;;;;5054342;28;20868;-63
2022/07/31 02:41:12;;;;;;;23.80;21.40;;;17.00;99.90;;;;;;5053862;28;20927;-63
2022/07/31 02:43:40;;;;;;;21.17;19.23;;;17.00;99.90;;;;;;5052851;28;20543;-63
2022/07/31 02:46:08;;;;;;;23.60;21.30;;;17.00;99.90;;;;;;5054498;28;20437;-63
2022/07/31 02:48:36;;;;;;;22.00;19.80;;;16.90;99.90;;;;;;5053238;28;20527;-63
2022/07/31 02:51:04;;;;;;;22.40;20.30;;;16.90;99.90;;;;;;5054150;28;20839;-61
2022/07/31 02:53:34;;;;;;;21.60;19.60;;;16.90;99.90;;;;;;5054053;28;20965;-62
2022/07/31 02:56:03;;;;;;;22.97;20.73;;;16.80;99.90;;;;;;5053469;28;20979;-64
2022/07/31 02:58:30;;;;;;;23.53;21.13;;;16.80;99.90;;;;;;5054076;28;20448;-63
2022/07/31 03:01:01;;;;;;;22.70;20.63;;;16.80;99.90;;;;;;5053283;28;21059;-64
2022/07/31 03:03:28;;;;;;;22.13;20.20;;;16.70;99.90;;;;;;5053632;28;20535;-63
2022/07/31 03:05:56;;;;;;;23.17;20.87;;;16.70;99.90;;;;;;5053336;28;20577;-63
2022/07/31 03:08:23;;;;;;;24.23;21.77;;;16.70;99.90;;;;;;5054100;28;20451;-63
2022/07/31 03:10:52;;;;;;;22.03;19.47;;;16.70;99.90;;;;;;5053346;28;20551;-64
2022/07/31 03:13:22;;;;;;;23.00;20.73;;;16.60;99.90;;;;;;5053284;28;20448;-63
2022/07/31 03:15:51;;;;;;;24.07;21.67;;;16.60;99.90;;;;;;5053442;28;20472;-64
2022/07/31 03:18:20;;;;;;;22.80;20.50;;;16.60;99.90;;;;;;5053102;28;20792;-62
2022/07/31 03:20:50;;;;;;;25.77;23.10;;;16.60;99.90;;;;;;5053096;28;20468;-63
2022/07/31 03:23:20;;;;;;;26.43;23.63;;;16.60;99.90;;;;;;5053832;28;20523;-62
2022/07/31 03:25:50;;;;;;;26.33;23.60;;;16.50;99.90;;;;;;5053369;28;20463;-62
2022/07/31 03:28:19;;;;;;;26.70;23.00;;;16.50;99.90;;;;;;5053341;28;20490;-63
2022/07/31 03:30:47;;;;;;;27.57;24.70;;;16.50;99.90;;;;;;5064535;28;20466;-63
2022/07/31 03:33:14;;;;;;;28.27;25.50;;;16.50;99.90;;;;;;5053135;28;20451;-62
2022/07/31 03:35:42;;;;;;;25.63;23.23;;;16.50;99.90;;;;;;5053156;28;20483;-63
2022/07/31 03:38:09;;;;;;;25.43;23.03;;;16.50;99.90;;;;;;5053249;28;20535;-62
2022/07/31 03:40:36;;;;;;;26.47;23.87;;;16.60;99.90;;;;;;5053316;28;20474;-64
2022/07/31 03:43:04;;;;;;;27.60;24.73;;;16.60;99.90;;;;;;5052649;28;20540;-63
2022/07/31 03:45:33;;;;;;;26.57;23.77;;;16.60;99.90;;;;;;5052738;28;20876;-62
2022/07/31 03:48:02;;;;;;;25.67;23.10;;;16.60;99.90;;;;;;5052601;28;20535;-63
2022/07/31 03:50:29;;;;;;;28.13;25.53;;;16.70;99.90;;;;;;5052858;28;21013;-64
2022/07/31 03:52:58;;;;;;;27.37;24.80;;;16.70;99.90;;;;;;5053032;28;20444;-63
2022/07/31 03:55:26;;;;;;;26.20;23.70;;;16.70;99.90;;;;;;5052555;28;20567;-63
2022/07/31 03:57:54;;;;;;;27.17;24.03;;;16.80;99.90;;;;;;5052970;28;20472;-62
2022/07/31 04:00:25;;;;;;;23.70;21.50;;;16.80;99.90;;;;;;5052410;28;20510;-64
2022/07/31 04:02:55;;;;;;;25.47;22.97;;;16.90;99.90;;;;;;5052510;28;20436;-62
2022/07/31 04:05:22;;;;;;;22.27;20.00;;;16.90;99.90;;;;;;5052606;28;20444;-62
2022/07/31 04:10:06;;;;;;;24.23;22.03;;;17.00;99.90;;;;;;5113817;27;21039;-63
2022/07/31 04:12:33;;;;;;;23.50;21.20;;;17.00;99.90;;;;;;5104593;27;20558;-64
2022/07/31 04:15:00;;;;;;;23.47;21.27;;;17.10;99.90;;;;;;5101665;28;20477;-63
2022/07/31 04:17:27;;;;;;;24.23;20.87;;;17.10;99.90;;;;;;5095548;28;20533;-63
2022/07/31 04:19:54;;;;;;;20.93;18.83;;;17.20;99.90;;;;;;5098685;28;20524;-63
2022/07/31 04:22:22;;;;;;;22.50;18.60;;;17.20;99.90;;;;;;5106964;28;20556;-63
2022/07/31 04:24:49;;;;;;;20.20;18.30;;;17.30;99.90;;;;;;5099651;28;20521;-64
2022/07/31 04:27:18;;;;;;;21.80;19.80;;;17.30;99.90;;;;;;5108391;28;20451;-63
2022/07/31 04:29:45;;;;;;;21.23;19.43;;;17.40;99.90;;;;;;5110642;28;20556;-63
2022/07/31 04:32:13;;;;;;;20.93;18.80;;;17.40;99.90;;;;;;5095541;28;20466;-64
2022/07/31 04:34:41;;;;;;;21.80;19.60;;;17.40;99.90;;;;;;5089889;28;20457;-63
2022/07/31 04:37:08;;;;;;;19.47;17.80;;;17.50;99.90;;;;;;5089841;28;20950;-62
2022/07/31 04:39:35;;;;;;;19.70;17.93;;;17.50;99.90;;;;;;5089912;28;20962;-63
2022/07/31 04:42:02;;;;;;;18.77;17.27;;;17.50;99.90;;;;;;5090070;28;20470;-63
2022/07/31 04:44:31;;;;;;;18.43;16.70;;;17.60;99.90;;;;;;5089794;28;21006;-63
2022/07/31 04:47:02;;;;;;;18.63;16.93;;;17.60;99.90;;;;;;5089828;28;20969;-63
2022/07/31 04:49:31;;;;;;;16.37;14.87;;;17.60;99.90;;;;;;5089697;28;20482;-62
2022/07/31 04:51:58;;;;;;;19.17;17.17;;;17.60;99.90;;;;;;5089786;28;20472;-62
2022/07/31 04:54:25;;;;;;;16.03;14.33;;;17.60;99.90;;;;;;5090363;28;20524;-62
2022/07/31 04:56:52;;;;;;;16.97;14.77;;;17.60;99.90;;;;;;5089707;28;20942;-63
2022/07/31 04:59:23;;;;;;;15.53;13.90;;;17.70;99.90;;;;;;5091540;28;20478;-62
2022/07/31 05:01:52;;;;;;;15.33;13.93;;;17.70;99.90;;;;;;5090366;28;20684;-63
2022/07/31 05:04:20;;;;;;;15.57;13.97;;;17.80;99.90;;;;;;5089441;28;20964;-63
2022/07/31 05:06:49;;;;;;;15.70;14.13;;;17.90;99.90;;;;;;5089598;28;20464;-63
2022/07/31 05:09:18;;;;;;;13.70;12.40;;;17.90;99.90;;;;;;5088969;28;20569;-63
2022/07/31 05:11:47;;;;;;;15.90;14.60;;;18.00;99.90;;;;;;5089372;28;20476;-63
2022/07/31 05:14:15;;;;;;;15.00;13.20;;;18.00;99.90;;;;;;5089396;28;20443;-63
2022/07/31 05:16:43;;;;;;;13.37;12.07;;;18.10;99.90;;;;;;5088989;28;20534;-63
2022/07/31 05:19:12;;;;;;;13.50;12.10;;;18.20;99.90;;;;;;5088209;28;20534;-63
2022/07/31 05:21:39;;;;;;;13.33;11.93;;;18.20;99.90;;;;;;5074809;28;20551;-63
2022/07/31 05:24:07;;;;;;;12.70;10.93;;;18.20;99.90;;;;;;5075417;28;20553;-63
2022/07/31 05:26:34;;;;;;;13.43;11.00;;;18.20;99.90;;;;;;5075302;28;20542;-61
2022/07/31 05:29:02;;;;;;;13.10;11.23;;;18.20;99.90;;;;;;5075250;28;21081;-64
2022/07/31 05:31:29;;;;;;;14.10;10.33;;;18.20;99.90;;;;;;5075348;28;20475;-64
2022/07/31 05:33:58;;;;;;;10.40;9.30;;;18.20;99.90;;;;;;5075664;28;20912;-64
2022/07/31 05:36:27;;;;;;;10.23;9.43;;;18.30;99.90;;;;;;5075278;28;20447;-63
2022/07/31 05:38:54;;;;;;;10.30;9.30;;;18.40;99.90;;;;;;5075407;28;20444;-64
2022/07/31 05:41:21;;;;;;;9.30;8.47;;;18.50;99.90;;;;;;5075347;28;20566;-63
2022/07/31 05:43:48;;;;;;;9.63;8.80;;;18.60;99.90;;;;;;5075118;28;20538;-63
2022/07/31 05:46:16;;;;;;;9.80;9.00;;;18.60;99.90;;;;;;5075044;28;20446;-63
2022/07/31 05:48:43;;;;;;;9.47;8.67;;;18.70;99.90;;;;;;5075277;28;20478;-63
2022/07/31 05:51:11;;;;;;;8.87;8.07;;;18.70;99.90;;;;;;5074807;28;20975;-62
2022/07/31 05:53:41;;;;;;;9.33;8.53;;;18.90;99.90;;;;;;5075115;28;20535;-63
2022/07/31 05:56:09;;;;;;;9.07;8.27;;;18.90;99.90;;;;;;5075145;28;20448;-62
2022/07/31 05:58:36;;;;;;;9.20;8.20;;;19.00;99.90;;;;;;5075255;28;20536;-62
2022/07/31 06:01:04;;;;;;;9.07;8.17;;;19.10;99.90;;;;;;5076261;28;20538;-63
2022/07/31 06:03:34;;;;;;;9.90;8.93;;;19.20;99.90;;;;;;5076257;28;20533;-64
2022/07/31 06:06:03;;;;;;;9.73;7.70;;;19.20;99.90;;;;;;5078107;28;20428;-63
2022/07/31 06:08:31;;;;;;;8.40;7.70;;;19.30;99.90;;;;;;5078362;28;20518;-63
2022/07/31 06:10:59;;;;;;;9.03;8.23;;;19.40;99.90;;;;;;5077297;28;20463;-63
2022/07/31 06:13:29;;;;;;;8.13;7.40;;;19.50;99.90;;;;;;5076366;28;20483;-63
2022/07/31 06:15:56;;;;;;;8.07;7.30;;;19.60;99.90;;;;;;5075771;28;20465;-63
2022/07/31 06:18:23;;;;;;;8.60;7.80;;;19.60;99.90;;;;;;5075401;28;20535;-62
2022/07/31 06:20:51;;;;;;;8.57;7.77;;;19.70;99.90;;;;;;5076540;28;20471;-63
2022/07/31 06:23:18;;;;;;;9.27;8.47;;;19.90;99.90;;;;;;5075326;28;20479;-63
2022/07/31 06:25:45;;;;;;;9.03;8.13;;;19.90;99.90;;;;;;5074884;28;20546;-63
2022/07/31 06:28:14;;;;;;;8.73;7.90;;;20.00;99.90;;;;;;5074669;28;20535;-63
2022/07/31 06:30:41;;;;;;;9.67;7.70;;;20.10;99.90;;;;;;5074505;28;20519;-63
2022/07/31 06:33:08;;;;;;;9.03;8.20;;;20.30;99.90;;;;;;5073528;28;20958;-63
2022/07/31 06:35:35;;;;;;;7.60;7.00;;;20.50;99.90;;;;;;5074390;28;20823;-63
2022/07/31 06:38:02;;;;;;;7.90;7.20;;;20.70;99.90;;;;;;5074371;28;20475;-63
2022/07/31 06:40:30;;;;;;;8.10;7.30;;;20.90;99.90;;;;;;5074305;28;20473;-63
2022/07/31 06:42:57;;;;;;;7.50;6.90;;;21.10;99.90;;;;;;5073800;28;21015;-63
2022/07/31 06:45:25;;;;;;;9.73;8.20;;;21.30;99.90;;;;;;5074144;28;20497;-64
2022/07/31 06:47:53;;;;;;;7.87;7.07;;;21.50;99.90;;;;;;5074289;28;20553;-62
2022/07/31 06:50:20;;;;;;;7.83;6.70;;;21.60;99.90;;;;;;5074172;28;20561;-62
2022/07/31 06:52:47;;;;;;;9.83;7.30;;;21.70;99.90;;;;;;5073944;28;20481;-63
2022/07/31 06:55:14;;;;;;;6.83;6.23;;;21.90;99.90;;;;;;5074047;28;20632;-63
2022/07/31 06:57:41;;;;;;;6.23;5.73;;;22.20;99.80;;;;;;5074925;28;20482;-62
2022/07/31 07:00:09;;;;;;;6.63;6.13;;;22.50;99.10;;;;;;5074968;28;20802;-63
2022/07/31 07:02:38;;;;;;;7.07;6.47;;;22.80;98.20;;;;;;5074950;28;20990;-63
2022/07/31 07:05:06;;;;;;;7.33;6.63;;;22.90;97.40;;;;;;5074694;28;20478;-63
2022/07/31 07:07:35;;;;;;;7.73;6.97;;;23.10;96.70;;;;;;5075652;28;20549;-63
2022/07/31 07:10:03;;;;;;;6.97;6.37;;;23.30;96.00;;;;;;5074847;28;20566;-63
2022/07/31 07:12:30;;;;;;;7.13;5.40;;;23.40;95.40;;;;;;5073936;28;20485;-63
2022/07/31 07:14:57;;;;;;;5.83;5.27;;;23.60;94.60;;;;;;5073907;28;20538;-63
2022/07/31 07:17:25;;;;;;;6.43;5.93;;;23.70;94.00;;;;;;5073606;28;20455;-63
2022/07/31 07:19:53;;;;;;;5.93;5.43;;;23.80;93.50;;;;;;5073595;28;21029;-62
2022/07/31 07:22:21;;;;;;;7.40;5.90;;;23.80;92.80;;;;;;5073470;28;20463;-62
2022/07/31 07:24:48;;;;;;;7.63;6.10;;;23.90;92.20;;;;;;5073926;28;20452;-63
2022/07/31 07:27:15;;;;;;;6.00;5.40;;;23.80;92.00;;;;;;5073376;28;20546;-63
2022/07/31 07:29:42;;;;;;;6.30;5.70;;;23.90;91.80;;;;;;5073182;28;20565;-62
2022/07/31 07:32:11;;;;;;;5.57;5.07;;;24.10;91.20;;;;;;5073476;28;20469;-63
2022/07/31 07:34:39;;;;;;;5.47;4.97;;;24.40;90.10;;;;;;5073685;28;20454;-63
2022/07/31 07:37:07;;;;;;;5.20;4.80;;;24.70;88.00;;;;;;5073277;28;20458;-63
2022/07/31 07:39:34;;;;;;;4.93;4.50;;;24.90;85.80;;;;;;5073298;28;20484;-63
2022/07/31 07:42:02;;;;;;;8.63;4.87;;;25.10;83.90;;;;;;5073558;28;20469;-63
2022/07/31 07:44:29;;;;;;;5.83;5.03;;;25.20;81.60;;;;;;5072931;28;20533;-64
2022/07/31 07:46:56;;;;;;;6.40;4.60;;;25.10;80.50;;;;;;5072787;28;20554;-64
2022/07/31 07:49:23;;;;;;;4.93;4.37;;;24.90;80.60;;;;;;5072941;28;20657;-63
2022/07/31 07:51:50;;;;;;;4.87;4.43;;;25.00;80.20;;;;;;5073153;28;20558;-64
2022/07/31 07:54:19;;;;;;;5.03;4.60;;;25.10;79.30;;;;;;5072999;28;20960;-64
2022/07/31 07:56:46;;;;;;;6.27;3.80;;;25.10;78.30;;;;;;5073356;28;20533;-63
2022/07/31 07:59:13;;;;;;;5.07;4.50;;;25.20;77.00;;;;;;5073226;28;20523;-64
2022/07/31 08:01:41;;;;;;;4.50;4.10;;;25.30;76.70;;;;;;5073254;28;20491;-63
2022/07/31 08:04:08;;;;;;;5.37;4.70;;;25.40;75.10;;;;;;5073282;28;20948;-64
2022/07/31 08:06:35;;;;;;;5.67;4.70;;;25.40;74.50;;;;;;5073613;28;20496;-64
2022/07/31 08:09:02;;;;;;;8.93;4.73;;;25.50;73.80;;;;;;5075735;28;20477;-63
2022/07/31 08:11:31;;;;;;;6.70;4.90;;;25.50;73.10;;;;;;5086243;28;20496;-63
2022/07/31 08:13:58;;;;;;;4.60;4.20;;;25.30;72.80;;;;;;5088239;28;20482;-63
2022/07/31 08:16:25;;;;;;;5.47;4.90;;;25.30;72.80;;;;;;5087221;28;20985;-63
2022/07/31 08:18:53;;;;;;;7.70;5.73;;;25.20;72.80;;;;;;5081444;28;20453;-63
2022/07/31 08:21:20;;;;;;;4.30;3.87;;;25.10;72.80;;;;;;5073326;28;20470;-63
2022/07/31 08:23:48;;;;;;;5.63;4.37;;;25.30;72.30;;;;;;5073257;28;20447;-63
2022/07/31 08:26:16;;;;;;;6.30;4.07;;;25.40;71.40;;;;;;5073465;28;20876;-63
2022/07/31 08:28:45;;;;;;;5.27;4.33;;;25.50;70.50;;;;;;5073595;28;20448;-64
2022/07/31 08:31:14;;;;;;;4.93;4.37;;;25.60;69.60;;;;;;5072691;28;20572;-63
2022/07/31 08:33:41;;;;;;;4.90;3.80;;;25.70;68.90;;;;;;5073216;28;20821;-64
2022/07/31 08:36:08;;;;;;;4.87;3.90;;;25.70;68.20;;;;;;5072937;28;21013;-63
2022/07/31 08:38:37;;;;;;;5.90;3.87;;;25.70;68.10;;;;;;5073596;28;20451;-62
2022/07/31 08:41:04;;;;;;;10.00;4.23;;;25.60;67.80;;;;;;5073080;28;20523;-63
2022/07/31 08:43:32;;;;;;;4.17;3.77;;;25.70;67.80;;;;;;5073469;28;20496;-63
2022/07/31 08:46:02;;;;;;;4.57;3.80;;;25.80;67.60;;;;;;5072569;28;21000;-63
2022/07/31 08:48:32;;;;;;;5.27;4.20;;;25.90;66.90;;;;;;5073109;28;20906;-63
2022/07/31 08:51:02;;;;;;;5.03;4.43;;;26.00;66.30;;;;;;5073192;28;20824;-62
2022/07/31 08:53:31;;;;;;;5.00;4.50;;;26.20;65.80;;;;;;5072942;28;20436;-64
2022/07/31 08:55:59;;;;;;;4.03;3.73;;;26.20;65.40;;;;;;5074931;28;20454;-63
2022/07/31 08:58:26;;;;;;;5.83;4.17;;;26.20;65.20;;;;;;5077000;28;20545;-64
2022/07/31 09:00:53;;;;;;;4.87;4.37;;;26.20;65.10;;;;;;5076677;28;20557;-63
2022/07/31 09:03:22;;;;;;;5.33;4.10;;;26.20;65.20;;;;;;5076274;28;20481;-63
2022/07/31 09:05:50;;;;;;;7.00;4.97;;;26.20;65.20;;;;;;5076254;28;20536;-64
2022/07/31 09:08:17;;;;;;;4.30;3.90;;;26.20;65.00;;;;;;5076175;28;20545;-64
2022/07/31 09:10:44;;;;;;;4.23;3.90;;;26.20;64.90;;;;;;5076507;28;20612;-62
2022/07/31 09:13:16;;;;;;;4.50;3.90;;;26.20;64.50;;;;;;5076356;28;20489;-64
2022/07/31 09:15:44;;;;;;;4.40;3.87;;;26.30;63.70;;;;;;5076309;28;20500;-64
2022/07/31 09:18:18;;;;;;;5.57;4.10;;;26.20;63.60;;;;;;5077477;28;20459;-64
2022/07/31 09:20:58;;;;;;;3.97;3.67;;;26.20;63.60;;;;;;5076728;28;20461;-64
2022/07/31 09:23:27;;;;;;;4.13;3.80;;;26.40;63.10;;;;;;5076291;28;20528;-62
2022/07/31 09:25:56;;;;;;;5.10;4.60;;;26.60;62.90;;;;;;5091803;28;20508;-64
2022/07/31 09:28:33;;;;;;;4.43;3.87;;;26.80;62.10;;;;;;5078354;28;20463;-63
2022/07/31 09:31:01;;;;;;;4.20;3.80;;;27.10;60.80;;;;;;5075617;28;20498;-64
2022/07/31 09:33:30;;;;;;;4.10;3.70;;;27.20;59.80;;;;;;5075718;28;20482;-63
2022/07/31 09:35:59;;;;;;;4.97;4.07;;;27.30;59.30;;;;;;5075474;28;20454;-64
2022/07/31 09:38:32;;;;;;;4.10;3.70;;;27.40;58.80;;;;;;5075906;28;20535;-64
2022/07/31 09:41:09;;;;;;;4.00;3.20;;;27.30;58.40;;;;;;5075407;28;20466;-64
2022/07/31 09:43:37;;;;;;;4.63;3.20;;;27.10;58.70;;;;;;5075396;28;20444;-63
2022/07/31 09:46:05;;;;;;;4.70;3.57;;;27.10;58.60;;;;;;5075603;28;20471;-63
2022/07/31 09:48:33;;;;;;;5.13;3.57;;;27.00;58.60;;;;;;5076035;28;20482;-64
2022/07/31 09:51:03;;;;;;;8.00;4.03;;;27.10;58.80;;;;;;5074975;28;20492;-64
2022/07/31 09:53:41;;;;;;;3.23;3.03;;;27.20;58.50;;;;;;5076507;28;20522;-63
2022/07/31 09:56:11;;;;;;;3.90;3.60;;;27.50;57.80;;;;;;5075449;28;20976;-65
2022/07/31 09:58:39;;;;;;;3.77;3.47;;;27.80;57.00;;;;;;5075426;28;20429;-64
2022/07/31 10:01:08;;;;;;;3.90;3.13;;;28.10;56.00;;;;;;5075557;28;20470;-63
2022/07/31 10:03:37;;;;;;;5.00;3.40;;;28.40;55.20;;;;;;5075262;28;20528;-64
2022/07/31 10:06:08;;;;;;;5.80;3.80;;;28.50;54.40;;;;;;5075193;28;20540;-64
2022/07/31 10:08:36;;;;;;;7.63;3.03;;;28.70;53.70;;;;;;5075268;28;20465;-63
2022/07/31 10:11:05;;;;;;;3.43;3.13;;;28.70;52.80;;;;;;5074748;28;20998;-63
2022/07/31 10:13:36;;;;;;;6.70;3.13;;;28.70;52.40;;;;;;5075526;28;20507;-64
2022/07/31 10:16:05;;;;;;;4.53;2.70;;;28.70;52.10;;;;;;5075270;28;20443;-64
2022/07/31 10:18:37;;;;;;;5.30;3.60;;;28.90;51.50;;;;;;5076010;28;20454;-64
2022/07/31 10:21:07;;;;;;;3.57;3.27;;;29.00;50.40;;;;;;5074577;28;20565;-63
2022/07/31 10:23:39;;;;;;;4.20;3.17;;;29.10;49.80;;;;;;5075192;28;20490;-64
2022/07/31 10:26:06;;;;;;;4.43;3.07;;;29.40;49.40;;;;;;5074495;28;20430;-64
2022/07/31 10:28:37;;;;;;;3.57;3.20;;;29.40;49.10;;;;;;5074461;28;20965;-64
2022/07/31 10:31:05;;;;;;;6.97;3.47;;;29.20;49.20;;;;;;5074746;28;20990;-64
2022/07/31 10:33:33;;;;;;;3.00;2.80;;;29.30;49.20;;;;;;5074794;28;20527;-64
2022/07/31 10:36:05;;;;;;;4.70;3.13;;;29.40;48.90;;;;;;5074677;28;20542;-64
2022/07/31 10:38:40;;;;;;;4.27;3.23;;;29.40;48.60;;;;;;5074658;28;20459;-64
2022/07/31 10:41:15;;;;;;;3.50;2.93;;;29.10;48.30;;;;;;5074157;28;20506;-63
2022/07/31 10:43:48;;;;;;;3.30;3.00;;;29.00;48.30;;;;;;5074638;28;20829;-64
2022/07/31 10:46:25;;;;;;;6.30;2.80;;;28.90;48.20;;;;;;5073986;28;20524;-64
2022/07/31 10:48:53;;;;;;;3.33;2.63;;;28.90;48.20;;;;;;5074087;28;20436;-64
2022/07/31 10:51:22;;;;;;;3.63;3.00;;;28.70;48.30;;;;;;5074215;28;20561;-63
2022/07/31 10:53:59;;;;;;;4.53;3.33;;;28.60;48.30;;;;;;5073781;28;20454;-64
2022/07/31 10:56:27;;;;;;;3.33;3.03;;;28.50;48.60;;;;;;5074182;28;20472;-64
2022/07/31 10:58:56;;;;;;;3.03;2.70;;;28.60;48.40;;;;;;5074119;28;20819;-64
2022/07/31 11:01:24;;;;;;;3.10;2.80;;;28.50;48.10;;;;;;5074931;28;20527;-63
2022/07/31 11:03:59;;;;;;;4.40;2.80;;;28.60;48.10;;;;;;5075278;28;20465;-62
2022/07/31 11:06:26;;;;;;;4.17;2.70;;;28.90;47.90;;;;;;5074817;28;20466;-62
2022/07/31 11:08:56;;;;;;;2.87;2.67;;;29.10;47.40;;;;;;5074531;28;20461;-64
2022/07/31 11:11:32;;;;;;;2.90;2.70;;;29.30;47.00;;;;;;5075829;28;20978;-64
2022/07/31 11:13:59;;;;;;;3.00;2.80;;;29.40;46.80;;;;;;5076366;28;20546;-64
2022/07/31 11:16:27;;;;;;;9.50;3.03;;;29.60;46.60;;;;;;5077031;28;20484;-63
2022/07/31 11:18:59;;;;;;;3.57;3.27;;;29.70;46.20;;;;;;5075665;28;20476;-63
2022/07/31 11:21:34;;;;;;;3.47;2.63;;;29.80;45.80;;;;;;5087977;28;20546;-64
2022/07/31 11:24:13;;;;;;;4.23;2.90;;;30.00;45.50;;;;;;5075255;28;20548;-64
2022/07/31 11:26:43;;;;;;;4.23;2.60;;;30.20;45.10;;;;;;5076663;28;20438;-62
2022/07/31 11:29:10;;;;;;;5.40;3.10;;;30.30;44.80;;;;;;5093867;28;20529;-64
2022/07/31 11:31:37;;;;;;;3.23;2.90;;;30.30;44.60;;;;;;5087707;28;20565;-64
2022/07/31 11:34:05;;;;;;;3.93;3.10;;;30.40;44.50;;;;;;5092110;28;20477;-64
2022/07/31 11:36:32;;;;;;;3.50;3.00;;;30.60;44.20;;;;;;5102028;28;20482;-62
2022/07/31 11:39:00;;;;;;;5.13;3.43;;;30.90;43.40;;;;;;5101641;28;20964;-64
2022/07/31 11:41:29;;;;;;;5.87;2.93;;;31.20;42.80;;;;;;5102677;28;20463;-63
2022/07/31 11:43:57;;;;;;;5.10;2.47;;;31.50;42.20;;;;;;5094150;28;20512;-64
2022/07/31 11:46:26;;;;;;;3.80;2.80;;;31.50;41.70;;;;;;5094671;28;20835;-64
2022/07/31 11:48:54;;;;;;;3.33;3.00;;;31.30;41.50;;;;;;5093547;28;20481;-65
2022/07/31 11:51:21;;;;;;;3.03;2.40;;;31.10;41.60;;;;;;5094097;28;20488;-65
2022/07/31 11:53:49;;;;;;;2.80;2.57;;;31.00;42.00;;;;;;5094299;28;20519;-64
2022/07/31 11:56:17;;;;;;;5.23;2.77;;;30.90;42.10;;;;;;5093030;28;20472;-63
2022/07/31 11:58:49;;;;;;;2.70;2.30;;;30.60;42.00;;;;;;5098216;28;20943;-65
2022/07/31 12:01:16;;;;;;;3.17;2.80;;;30.40;42.30;;;;;;5094628;28;20460;-63
2022/07/31 12:03:44;;;;;;;4.57;2.77;;;30.30;42.50;;;;;;5095525;28;20481;-63
2022/07/31 12:06:12;;;;;;;2.83;2.63;;;30.50;42.20;;;;;;5097197;28;20470;-65
2022/07/31 12:08:40;;;;;;;4.40;2.50;;;30.70;41.80;;;;;;5095245;28;20959;-65
2022/07/31 12:11:09;;;;;;;6.70;2.80;;;31.00;41.20;;;;;;5088813;28;20507;-65
2022/07/31 12:13:36;;;;;;;3.07;2.60;;;31.00;40.60;;;;;;5079548;28;20465;-63
2022/07/31 12:16:06;;;;;;;2.57;2.37;;;31.10;40.40;;;;;;5087573;28;20476;-63
2022/07/31 12:18:46;;;;;;;2.90;2.47;;;31.00;40.00;;;;;;5079498;28;20529;-63
2022/07/31 12:21:14;;;;;;;4.50;4.10;;;30.90;40.40;;;;;;5074259;28;20462;-63
2022/07/31 12:23:43;;;;;;;5.10;2.73;;;31.00;41.20;;;;;;5080019;28;20447;-64
2022/07/31 12:26:12;;;;;;;3.53;3.23;;;31.20;41.80;;;;;;5099561;28;20476;-64
2022/07/31 12:28:40;;;;;;;2.67;2.47;;;31.50;40.90;;;;;;5082767;28;20459;-63
2022/07/31 12:31:08;;;;;;;5.10;2.47;;;31.90;40.00;;;;;;5080905;28;20490;-65
2022/07/31 12:33:44;;;;;;;3.80;2.33;;;32.30;38.90;;;;;;5092248;28;20973;-63
2022/07/31 12:36:16;;;;;;;2.50;2.20;;;32.50;37.90;;;;;;5104186;28;20445;-63
2022/07/31 12:38:44;;;;;;;3.50;2.67;;;32.40;38.50;;;;;;5103683;28;20470;-63
2022/07/31 12:41:11;;;;;;;4.73;2.53;;;32.10;38.20;;;;;;5104337;28;20493;-64
2022/07/31 12:43:38;;;;;;;4.03;2.87;;;31.80;38.60;;;;;;5081356;28;20501;-64
2022/07/31 12:46:05;;;;;;;2.87;2.50;;;31.40;39.00;;;;;;5077181;28;20447;-63
2022/07/31 12:48:35;;;;;;;4.10;2.70;;;31.20;39.30;;;;;;5077251;28;20441;-63